Time;durP1;ratioP1;P1;durP2;ratioP2;P2;SDS_P1;SDS_P2;PMS_P1;PMS_P2;Temp;Humidity;BMP_temperature;BMP_pressure;BME280_temperature;BME280_humidity;BME280_pressure;Samples;Min_cycle;Max_cycle;Signal;HPM_P1;HPM_P2
2023/04/03 00:00:39;;;;;;;4.63;3.03;;;;;;;12.83;49.67;94021.09;5088928;28;20704;-49
2023/04/03 00:03:06;;;;;;;2.53;2.33;;;;;;;12.80;49.81;94012.75;5088815;28;20197;-48
2023/04/03 00:05:33;;;;;;;3.27;2.60;;;;;;;12.79;49.74;94006.03;5089496;28;20185;-50
2023/04/03 00:08:01;;;;;;;3.70;2.93;;;;;;;12.79;49.67;94000.91;5089423;28;20621;-49
2023/04/03 00:10:28;;;;;;;2.77;2.57;;;;;;;12.78;49.85;93998.53;5089259;28;20242;-49
2023/04/03 00:12:57;;;;;;;2.80;2.40;;;;;;;12.78;49.60;93998.53;5089363;28;20189;-49
2023/04/03 00:15:23;;;;;;;3.27;2.70;;;;;;;12.77;49.93;94000.25;5089078;28;20711;-53
2023/04/03 00:17:50;;;;;;;2.77;2.57;;;;;;;12.75;50.02;93994.50;5089033;28;20193;-49
2023/04/03 00:20:17;;;;;;;4.00;2.63;;;;;;;12.74;49.96;93989.56;5088735;28;20692;-48
2023/04/03 00:22:44;;;;;;;3.13;2.50;;;;;;;12.73;50.08;93990.50;5089229;28;20177;-49
2023/04/03 00:25:11;;;;;;;3.97;2.50;;;;;;;12.72;50.04;93988.91;5089134;28;20198;-48
2023/04/03 00:27:39;;;;;;;3.37;2.40;;;;;;;12.71;49.96;94000.94;5089342;28;20193;-49
2023/04/03 00:30:12;;;;;;;5.77;2.20;;;;;;;12.70;50.20;93994.22;5089161;28;20773;-51
2023/04/03 00:32:38;;;;;;;2.90;2.40;;;;;;;12.70;50.23;93990.88;5089299;28;20600;-49
2023/04/03 00:35:06;;;;;;;2.77;2.20;;;;;;;12.69;50.38;93994.38;5088985;28;20637;-49
2023/04/03 00:37:33;;;;;;;5.13;2.93;;;;;;;12.66;50.56;93990.41;5089180;28;20197;-49
2023/04/03 00:40:00;;;;;;;2.50;2.30;;;;;;;12.66;50.35;93994.72;5088844;28;20240;-49
2023/04/03 00:42:27;;;;;;;3.73;2.67;;;;;;;12.64;50.44;94000.00;5089006;28;20517;-48
2023/04/03 00:45:30;;;;;;;2.40;2.20;;;;;;;12.63;50.36;94003.53;5089245;28;20198;-50
2023/04/03 00:47:59;;;;;;;2.60;2.37;;;;;;;12.61;50.34;93995.22;5088812;28;20189;-49
2023/04/03 00:50:26;;;;;;;3.33;2.20;;;;;;;12.59;50.45;93993.78;5088521;28;20653;-51
2023/04/03 00:52:54;;;;;;;3.53;2.40;;;;;;;12.34;50.59;93959.75;5088849;28;20193;-51
2023/04/03 00:55:21;;;;;;;2.80;2.53;;;;;;;12.55;50.67;94004.38;5088494;28;20296;-48
2023/04/03 00:57:48;;;;;;;3.60;2.30;;;;;;;12.55;50.92;94008.69;5088594;28;20613;-48
2023/04/03 01:00:19;;;;;;;3.47;2.80;;;;;;;12.54;50.87;94007.13;5088554;28;20225;-50
2023/04/03 01:02:47;;;;;;;2.50;2.30;;;;;;;12.49;50.94;94005.06;5088526;28;20197;-48
2023/04/03 01:05:17;;;;;;;2.73;2.20;;;;;;;12.50;50.80;94009.19;5091251;28;20246;-48
2023/04/03 01:07:44;;;;;;;2.73;2.10;;;;;;;12.49;50.87;94004.25;5092674;28;20208;-49
2023/04/03 01:10:16;;;;;;;2.27;2.13;;;;;;;12.46;50.96;94002.81;5092064;28;20194;-48
2023/04/03 01:12:45;;;;;;;3.27;2.40;;;;;;;12.44;51.03;94003.97;5092206;28;20190;-48
2023/04/03 01:15:14;;;;;;;3.67;2.30;;;;;;;12.46;51.03;94013.06;5091997;28;20181;-48
2023/04/03 01:17:43;;;;;;;3.70;2.40;;;;;;;12.43;51.02;94007.47;5092322;28;20197;-49
2023/04/03 01:20:46;;;;;;;2.50;2.30;;;;;;;12.44;51.21;94009.09;5091965;28;20294;-49
2023/04/03 01:23:26;;;;;;;3.20;2.27;;;;;;;12.42;51.10;94005.88;5092150;28;20251;-50
2023/04/03 01:25:55;;;;;;;4.23;2.67;;;;;;;12.39;51.27;94006.19;5092314;28;20192;-50
2023/04/03 01:28:24;;;;;;;3.27;2.50;;;;;;;12.38;51.08;94004.59;5091746;28;21006;-49
2023/04/03 01:31:00;;;;;;;2.97;2.67;;;;;;;12.36;51.29;94009.91;5092114;28;20182;-49
2023/04/03 01:33:28;;;;;;;2.33;2.13;;;;;;;12.35;51.29;94010.06;5091337;28;20189;-51
2023/04/03 01:35:55;;;;;;;2.63;2.40;;;;;;;12.31;51.44;94004.47;5091916;28;20250;-55
2023/04/03 01:38:21;;;;;;;2.87;2.43;;;;;;;12.31;51.29;93996.78;5091913;28;20192;-50
2023/04/03 01:40:48;;;;;;;3.00;2.67;;;;;;;12.32;51.28;94007.84;5091644;28;20225;-50
2023/04/03 01:43:15;;;;;;;5.43;2.60;;;;;;;12.33;51.43;94012.00;5093992;28;20186;-53
2023/04/03 01:45:42;;;;;;;3.17;2.30;;;;;;;12.25;51.24;93997.44;5095703;28;20186;-55
2023/04/03 01:48:09;;;;;;;3.33;2.47;;;;;;;12.29;51.27;94003.81;5093133;28;20212;-49
2023/04/03 01:50:37;;;;;;;2.90;2.50;;;;;;;12.25;51.49;94000.78;5092140;28;20223;-53
2023/04/03 01:53:03;;;;;;;2.37;2.17;;;;;;;12.23;51.66;94002.72;5092537;28;20274;-54
2023/04/03 01:55:30;;;;;;;3.37;2.30;;;;;;;12.23;51.55;94007.84;5091613;28;20182;-52
2023/04/03 01:57:57;;;;;;;3.10;2.20;;;;;;;12.20;51.67;94005.63;5091514;28;20204;-50
2023/04/03 02:00:24;;;;;;;3.50;2.40;;;;;;;12.19;51.82;94011.72;5091038;28;20221;-53
2023/04/03 02:02:51;;;;;;;2.70;2.50;;;;;;;12.19;51.95;94005.78;5091321;28;20672;-56
2023/04/03 02:05:18;;;;;;;2.90;2.60;;;;;;;12.17;52.05;94003.38;5091343;28;20182;-59
2023/04/03 02:07:46;;;;;;;2.60;2.40;;;;;;;12.15;52.01;93999.38;5091913;28;20185;-54
2023/04/03 02:10:13;;;;;;;4.07;2.63;;;;;;;12.01;51.93;93982.94;5094577;28;20189;-51
2023/04/03 02:12:40;;;;;;;4.63;3.00;;;;;;;12.09;52.22;94000.84;5095528;28;20546;-52
2023/04/03 02:15:08;;;;;;;4.20;2.50;;;;;;;12.10;52.04;94006.78;5094520;28;20234;-53
2023/04/03 02:17:36;;;;;;;3.40;2.87;;;;;;;11.93;52.24;93985.50;5093144;28;20620;-55
2023/04/03 02:20:04;;;;;;;3.63;2.80;;;;;;;12.05;52.11;94009.84;5091744;28;20213;-50
2023/04/03 02:22:30;;;;;;;6.07;3.20;;;;;;;12.03;52.28;94007.41;5091106;28;20189;-50
2023/04/03 02:24:59;;;;;;;6.30;3.10;;;;;;;11.98;52.37;93994.28;5091150;28;20584;-50
2023/04/03 02:27:25;;;;;;;4.47;2.93;;;;;;;11.98;52.49;93996.06;5090585;28;20255;-55
2023/04/03 02:29:52;;;;;;;3.67;3.07;;;;;;;11.97;52.56;93995.25;5091051;28;20193;-48
2023/04/03 02:32:19;;;;;;;5.97;3.13;;;;;;;11.93;52.56;93994.00;5090486;28;20197;-48
2023/04/03 02:34:46;;;;;;;4.20;3.33;;;;;;;11.93;52.54;93998.31;5091005;28;20349;-50
2023/04/03 02:37:13;;;;;;;5.23;3.93;;;;;;;11.91;52.82;93987.41;5090249;28;20193;-48
2023/04/03 02:39:39;;;;;;;4.13;3.57;;;;;;;11.89;52.80;93989.34;5090619;28;20194;-49
2023/04/03 02:42:08;;;;;;;5.37;2.87;;;;;;;11.88;52.60;93990.31;5090190;28;20235;-48
2023/04/03 02:44:35;;;;;;;3.73;3.20;;;;;;;11.86;52.82;93979.44;5090367;28;20285;-50
2023/04/03 02:47:02;;;;;;;4.33;3.67;;;;;;;11.82;52.91;93981.47;5090175;28;20194;-50
2023/04/03 02:49:29;;;;;;;3.90;3.53;;;;;;;11.83;52.92;93982.31;5090509;28;20200;-49
2023/04/03 02:51:56;;;;;;;6.10;3.37;;;;;;;11.80;53.12;93984.22;5090742;28;20189;-48
2023/04/03 02:54:23;;;;;;;4.30;3.50;;;;;;;11.78;53.06;93978.44;5089911;28;20189;-50
2023/04/03 02:56:50;;;;;;;4.60;3.20;;;;;;;11.76;53.25;93970.13;5090335;28;20681;-47
2023/04/03 02:59:18;;;;;;;4.20;3.20;;;;;;;11.75;53.16;93973.66;5089933;28;20266;-48
2023/04/03 03:01:45;;;;;;;5.33;3.00;;;;;;;11.73;53.27;93967.88;5089797;28;20289;-51
2023/04/03 03:04:11;;;;;;;2.80;2.60;;;;;;;11.73;53.15;93970.44;5090488;28;20182;-48
2023/04/03 03:06:38;;;;;;;9.07;3.87;;;;;;;11.71;53.41;93959.56;5090300;28;20190;-48
2023/04/03 03:09:06;;;;;;;4.57;3.33;;;;;;;11.69;53.29;93974.28;5090108;28;20193;-51
2023/04/03 03:11:33;;;;;;;3.97;3.23;;;;;;;11.65;53.30;93957.66;5090171;28;20217;-50
2023/04/03 03:14:00;;;;;;;3.77;2.93;;;;;;;11.68;53.40;93961.66;5089934;28;20205;-48
2023/04/03 03:16:28;;;;;;;5.73;3.53;;;;;;;11.66;53.51;93964.38;5089651;28;20266;-47
2023/04/03 03:18:55;;;;;;;3.90;2.97;;;;;;;11.66;53.46;93972.06;5089592;28;20186;-49
2023/04/03 03:21:21;;;;;;;4.90;3.50;;;;;;;11.64;53.67;93968.06;5090007;28;20210;-47
2023/04/03 03:23:48;;;;;;;3.13;2.80;;;;;;;11.63;53.74;93963.91;5089682;28;20190;-49
2023/04/03 03:26:15;;;;;;;6.57;3.30;;;;;;;11.61;53.95;93966.63;5089403;28;20194;-49
2023/04/03 03:28:42;;;;;;;4.17;2.97;;;;;;;11.57;53.65;93962.78;5089459;28;20231;-49
2023/04/03 03:31:10;;;;;;;5.37;3.03;;;;;;;11.53;53.87;93953.84;5089465;28;20197;-49
2023/04/03 03:33:38;;;;;;;3.40;3.03;;;;;;;11.58;54.04;93966.16;5089992;28;20210;-51
2023/04/03 03:36:05;;;;;;;6.50;3.23;;;;;;;11.57;53.95;93962.78;5089577;28;20246;-49
2023/04/03 03:38:32;;;;;;;4.17;2.90;;;;;;;11.56;54.00;93963.75;5089768;28;20181;-50
2023/04/03 03:40:59;;;;;;;5.20;3.23;;;;;;;11.53;53.96;93967.44;5090386;28;20209;-49
2023/04/03 03:43:26;;;;;;;3.97;3.17;;;;;;;11.54;54.00;93979.28;5089870;28;20254;-54
2023/04/03 03:45:53;;;;;;;5.83;3.00;;;;;;;11.50;54.06;93960.06;5090984;28;20200;-50
2023/04/03 03:48:20;;;;;;;4.40;3.13;;;;;;;11.52;54.21;93963.25;5089704;28;20193;-51
2023/04/03 03:50:49;;;;;;;3.27;2.97;;;;;;;11.52;54.22;93967.59;5094244;28;20198;-49
2023/04/03 03:53:15;;;;;;;3.67;3.03;;;;;;;11.34;54.21;93949.03;5094721;28;20316;-55
2023/04/03 03:55:43;;;;;;;3.73;3.27;;;;;;;11.50;54.25;93975.44;5093476;28;20638;-51
2023/04/03 03:58:10;;;;;;;4.40;3.10;;;;;;;11.50;54.42;93979.75;5095258;28;20193;-50
2023/04/03 04:00:37;;;;;;;3.93;3.10;;;;;;;11.49;54.30;93976.41;5092925;28;20193;-52
2023/04/03 04:03:04;;;;;;;6.30;4.23;;;;;;;11.46;54.31;93968.25;5089816;28;20636;-51
2023/04/03 04:05:31;;;;;;;4.13;3.43;;;;;;;11.48;54.60;93974.78;5089737;28;20190;-49
2023/04/03 04:07:59;;;;;;;4.47;3.27;;;;;;;11.49;54.61;93975.59;5089828;28;20185;-55
2023/04/03 04:10:26;;;;;;;5.60;3.90;;;;;;;11.49;54.48;93970.50;5089854;28;20190;-50
2023/04/03 04:12:53;;;;;;;4.00;3.27;;;;;;;11.49;54.50;93973.03;5089302;28;20297;-53
2023/04/03 04:15:21;;;;;;;10.23;4.47;;;;;;;11.50;54.46;93978.00;5089532;28;20186;-52
2023/04/03 04:17:48;;;;;;;5.60;3.27;;;;;;;11.45;54.54;93971.78;5088887;28;20513;-54
2023/04/03 04:20:16;;;;;;;5.93;3.87;;;;;;;11.44;54.51;93970.97;5089246;28;20242;-49
2023/04/03 04:22:42;;;;;;;5.63;3.80;;;;;;;11.58;54.59;93994.31;5089389;28;20245;-49
2023/04/03 04:25:11;;;;;;;7.70;3.43;;;;;;;11.58;54.70;93992.56;5089732;28;20195;-49
2023/04/03 04:27:38;;;;;;;6.93;3.60;;;;;;;11.42;54.33;93957.50;5089052;28;20200;-47
2023/04/03 04:30:06;;;;;;;6.17;3.57;;;;;;;11.70;54.43;93990.44;5089388;28;20190;-56
2023/04/03 04:32:33;;;;;;;4.50;3.67;;;;;;;11.74;54.34;93984.03;5088542;28;20197;-49
2023/04/03 04:35:00;;;;;;;5.03;3.40;;;;;;;11.75;54.40;93986.47;5088911;28;20549;-57
2023/04/03 04:37:27;;;;;;;5.67;3.87;;;;;;;11.69;54.39;93978.63;5088793;28;20197;-58
2023/04/03 04:39:53;;;;;;;8.63;3.90;;;;;;;11.84;54.46;94000.09;5092245;28;20235;-54
2023/04/03 04:42:22;;;;;;;6.23;3.43;;;;;;;11.84;53.99;94002.66;5094098;28;20214;-50
2023/04/03 04:44:49;;;;;;;3.77;3.00;;;;;;;11.85;54.20;93988.88;5092799;28;20675;-50
2023/04/03 04:47:16;;;;;;;4.83;3.47;;;;;;;11.97;54.43;93999.59;5092836;28;20776;-50
2023/04/03 04:49:42;;;;;;;9.73;4.13;;;;;;;12.01;54.23;93998.31;5092663;28;20212;-56
2023/04/03 04:52:09;;;;;;;4.97;3.97;;;;;;;12.04;54.00;94006.44;5092982;28;20194;-57
2023/04/03 04:54:36;;;;;;;5.90;3.70;;;;;;;12.02;54.02;93999.91;5092480;28;20281;-52
2023/04/03 04:57:03;;;;;;;6.67;3.53;;;;;;;12.15;53.79;94012.22;5092667;28;20228;-53
2023/04/03 04:59:31;;;;;;;7.40;4.33;;;;;;;12.14;53.83;94002.94;5092177;28;20246;-51
2023/04/03 05:01:58;;;;;;;4.87;4.10;;;;;;;12.24;53.83;94021.47;5092657;28;20229;-48
2023/04/03 05:04:25;;;;;;;8.93;4.90;;;;;;;12.28;53.76;94018.41;5092215;28;20189;-53
2023/04/03 05:06:51;;;;;;;7.40;4.30;;;;;;;12.34;53.78;94019.50;5092803;28;20573;-51
2023/04/03 05:09:19;;;;;;;10.63;5.00;;;;;;;12.40;53.65;94025.75;5092502;28;20178;-51
2023/04/03 05:11:46;;;;;;;5.27;4.40;;;;;;;12.45;53.54;94024.28;5092348;28;20229;-51
2023/04/03 05:14:13;;;;;;;8.43;4.70;;;;;;;12.49;53.55;94030.69;5092468;28;20189;-49
2023/04/03 05:16:42;;;;;;;7.97;4.23;;;;;;;12.50;53.48;94022.03;5092230;28;20243;-49
2023/04/03 05:19:09;;;;;;;7.90;4.40;;;;;;;12.66;53.29;94048.59;5092467;28;20209;-49
2023/04/03 05:21:36;;;;;;;10.53;4.97;;;;;;;12.71;53.18;94036.84;5092139;28;20545;-53
2023/04/03 05:24:03;;;;;;;9.57;5.37;;;;;;;12.41;53.01;93979.44;5092577;28;20677;-49
2023/04/03 05:26:30;;;;;;;7.13;5.00;;;;;;;12.90;52.98;94038.22;5092199;28;20190;-49
2023/04/03 05:28:57;;;;;;;8.30;5.30;;;;;;;12.99;52.82;94039.75;5092097;28;20201;-49
2023/04/03 05:31:24;;;;;;;6.47;5.10;;;;;;;12.94;52.51;94020.72;5092090;28;20209;-48
2023/04/03 05:33:52;;;;;;;9.47;6.00;;;;;;;13.19;52.25;94044.50;5092144;28;20730;-49
2023/04/03 05:36:19;;;;;;;7.93;5.13;;;;;;;13.33;52.41;94041.22;5091696;28;20194;-52
2023/04/03 05:38:46;;;;;;;8.83;5.57;;;;;;;13.49;52.00;94035.97;5091955;28;20198;-48
2023/04/03 05:41:13;;;;;;;6.80;6.10;;;;;;;13.64;51.77;94030.88;5091389;28;20552;-51
2023/04/03 05:43:40;;;;;;;9.80;6.13;;;;;;;13.80;51.61;94035.88;5091686;28;20195;-49
2023/04/03 05:46:11;;;;;;;8.80;5.83;;;;;;;13.93;51.28;94045.59;5091501;28;20536;-52
2023/04/03 05:48:38;;;;;;;9.20;6.30;;;;;;;14.04;51.39;94039.22;5091637;28;20198;-48
2023/04/03 05:51:07;;;;;;;14.27;7.33;;;;;;;14.10;51.17;94027.44;5091336;28;20209;-49
2023/04/03 05:53:37;;;;;;;18.20;9.33;;;;;;;14.27;50.95;94026.31;5091698;28;20205;-50
2023/04/03 05:56:04;;;;;;;14.10;9.10;;;;;;;14.39;50.91;94026.69;5091683;28;20221;-49
2023/04/03 05:58:31;;;;;;;22.33;9.87;;;;;;;14.52;50.67;94024.31;5091336;28;20204;-49
2023/04/03 06:00:58;;;;;;;13.57;9.23;;;;;;;14.52;50.31;94001.16;5091807;28;20211;-50
2023/04/03 06:03:25;;;;;;;13.93;9.07;;;;;;;14.76;50.31;94029.16;5091133;28;20236;-49
2023/04/03 06:05:52;;;;;;;13.53;8.53;;;;;;;14.87;49.87;94024.53;5091652;28;20193;-50
2023/04/03 06:08:20;;;;;;;12.47;7.23;;;;;;;15.01;49.90;94027.06;5091239;28;20182;-51
2023/04/03 06:10:47;;;;;;;14.10;8.30;;;;;;;15.13;49.70;94021.47;5091174;28;20186;-51
2023/04/03 06:13:14;;;;;;;15.33;8.43;;;;;;;15.26;49.49;94009.50;5090974;28;20676;-50
2023/04/03 06:15:41;;;;;;;14.10;8.53;;;;;;;15.39;49.40;94011.44;5091385;28;20270;-49
2023/04/03 06:18:08;;;;;;;16.57;8.23;;;;;;;15.50;49.10;93998.06;5091040;28;20197;-50
2023/04/03 06:20:35;;;;;;;14.47;7.77;;;;;;;15.50;48.78;93980.03;5091204;28;20193;-50
2023/04/03 06:23:02;;;;;;;14.27;7.83;;;;;;;15.75;48.81;94002.84;5090715;28;20688;-47
2023/04/03 06:25:31;;;;;;;11.47;7.77;;;;;;;15.88;48.58;94005.53;5091019;28;20194;-50
2023/04/03 06:27:58;;;;;;;13.17;7.50;;;;;;;16.04;48.45;94014.78;5091220;28;20188;-51
2023/04/03 06:30:25;;;;;;;11.90;7.73;;;;;;;16.20;48.30;94006.75;5090753;28;20190;-52
2023/04/03 06:32:52;;;;;;;9.73;7.90;;;;;;;16.36;48.21;93997.09;5090756;28;20200;-49
2023/04/03 06:35:19;;;;;;;15.30;8.90;;;;;;;16.58;47.75;94008.97;5090660;28;20224;-50
2023/04/03 06:37:46;;;;;;;12.97;8.13;;;;;;;16.75;47.79;94015.44;5090586;28;20855;-53
2023/04/03 06:40:20;;;;;;;14.80;7.47;;;;;;;16.86;47.47;94010.69;5090520;28;20190;-51
2023/04/03 06:42:48;;;;;;;12.80;7.00;;;;;;;17.00;47.43;94022.66;5090739;28;20260;-52
2023/04/03 06:45:15;;;;;;;10.93;6.63;;;;;;;17.10;47.35;94022.28;5090449;28;20660;-52
2023/04/03 06:47:42;;;;;;;13.20;6.80;;;;;;;17.17;47.10;94021.31;5090458;28;20193;-49
2023/04/03 06:50:11;;;;;;;9.73;7.07;;;;;;;17.24;46.90;94019.56;5090323;28;20251;-54
2023/04/03 06:52:39;;;;;;;11.20;6.47;;;;;;;17.22;46.80;94021.53;5090362;28;20669;-53
2023/04/03 06:55:07;;;;;;;16.47;6.63;;;;;;;17.37;46.66;94031.72;5090368;28;20201;-49
2023/04/03 06:57:33;;;;;;;9.90;6.43;;;;;;;17.26;46.56;94011.59;5090161;28;20238;-54
2023/04/03 07:00:03;;;;;;;10.50;6.20;;;;;;;17.50;46.49;94036.91;5090123;28;20204;-55
2023/04/03 07:02:30;;;;;;;9.10;5.80;;;;;;;17.57;46.28;94034.31;5089222;28;20236;-53
2023/04/03 07:04:57;;;;;;;7.80;5.47;;;;;;;17.63;46.32;94036.13;5089992;28;20188;-54
2023/04/03 07:07:23;;;;;;;9.40;5.63;;;;;;;17.65;45.97;94026.38;5089923;28;20182;-53
2023/04/03 07:09:51;;;;;;;10.43;5.13;;;;;;;17.74;45.89;94032.19;5089856;28;20182;-55
2023/04/03 07:12:17;;;;;;;6.10;4.93;;;;;;;17.77;45.87;94024.84;5090294;28;20247;-54
2023/04/03 07:14:44;;;;;;;8.93;5.17;;;;;;;17.87;45.94;94027.03;5089827;28;20185;-56
2023/04/03 07:17:12;;;;;;;7.73;5.40;;;;;;;17.95;45.82;94007.94;5090035;28;20540;-54
2023/04/03 07:19:39;;;;;;;6.70;5.13;;;;;;;17.99;45.64;94009.91;5089576;28;20192;-49
2023/04/03 07:22:07;;;;;;;9.03;4.57;;;;;;;18.08;45.56;94017.47;5089393;28;20214;-53
2023/04/03 07:24:34;;;;;;;6.77;4.57;;;;;;;18.15;45.26;94006.13;5090000;28;20189;-54
2023/04/03 07:27:02;;;;;;;6.70;4.37;;;;;;;18.24;45.27;94009.31;5093001;28;20661;-52
2023/04/03 07:29:29;;;;;;;6.80;4.40;;;;;;;18.34;45.05;94011.47;5091378;28;20262;-55
2023/04/03 07:31:56;;;;;;;9.17;5.03;;;;;;;18.49;44.86;94004.28;5092007;28;20648;-53
2023/04/03 07:34:25;;;;;;;5.93;4.10;;;;;;;18.60;44.86;94003.63;5090158;28;20224;-52
2023/04/03 07:36:51;;;;;;;7.33;4.50;;;;;;;18.77;44.82;94007.41;5089529;28;20257;-52
2023/04/03 07:39:19;;;;;;;7.67;3.80;;;;;;;18.96;44.49;93999.78;5089891;28;20185;-57
2023/04/03 07:41:46;;;;;;;11.10;4.40;;;;;;;19.09;44.19;93994.53;5089310;28;20581;-51
2023/04/03 07:44:12;;;;;;;4.13;3.57;;;;;;;19.24;44.43;93991.66;5089685;28;20182;-57
2023/04/03 07:46:40;;;;;;;6.17;3.90;;;;;;;19.39;44.20;93983.59;5089140;28;20189;-49
2023/04/03 07:49:07;;;;;;;4.63;3.73;;;;;;;19.51;43.98;93982.69;5089577;28;20194;-52
2023/04/03 07:51:35;;;;;;;6.23;3.57;;;;;;;19.68;43.91;93982.22;5090373;28;20177;-51
2023/04/03 07:54:02;;;;;;;8.13;4.53;;;;;;;19.81;43.82;93989.91;5089811;28;20280;-52
2023/04/03 07:56:29;;;;;;;8.40;4.00;;;;;;;19.90;43.68;93987.84;5092888;28;20225;-51
2023/04/03 07:58:56;;;;;;;6.17;4.27;;;;;;;19.94;43.60;93982.00;5091723;28;20197;-49
2023/04/03 08:01:23;;;;;;;4.90;3.40;;;;;;;19.90;43.19;93962.66;5089242;28;20198;-51
2023/04/03 08:03:50;;;;;;;4.93;4.43;;;;;;;20.05;43.44;93968.34;5089072;28;20229;-50
2023/04/03 08:06:17;;;;;;;4.57;3.33;;;;;;;20.13;43.39;93975.06;5089294;28;20621;-49
2023/04/03 08:08:45;;;;;;;4.63;3.60;;;;;;;20.21;43.15;93977.41;5089225;28;20205;-55
2023/04/03 08:11:12;;;;;;;8.80;3.60;;;;;;;20.26;43.05;93972.34;5089338;28;20199;-51
2023/04/03 08:13:41;;;;;;;6.77;3.57;;;;;;;20.30;43.10;93973.50;5091161;28;20185;-50
2023/04/03 08:16:10;;;;;;;5.40;3.77;;;;;;;20.35;42.98;93966.88;5093388;28;20208;-52
2023/04/03 08:18:38;;;;;;;4.47;3.90;;;;;;;20.42;42.90;93967.56;5092662;28;20212;-50
2023/04/03 08:21:09;;;;;;;4.00;3.60;;;;;;;20.49;42.68;93963.16;5093173;28;20201;-48
2023/04/03 08:23:36;;;;;;;4.90;3.70;;;;;;;20.54;42.56;93968.47;5092944;28;20263;-52
2023/04/03 08:26:16;;;;;;;5.93;3.63;;;;;;;20.59;42.34;93966.03;5093587;28;20182;-51
2023/04/03 08:28:43;;;;;;;4.73;3.83;;;;;;;20.64;42.23;93963.59;5093081;28;20212;-50
2023/04/03 08:31:13;;;;;;;4.37;3.63;;;;;;;20.70;42.34;93965.31;5093304;28;20185;-48
2023/04/03 08:33:41;;;;;;;5.50;4.20;;;;;;;20.75;42.10;93968.03;5092964;28;20198;-48
2023/04/03 08:36:16;;;;;;;9.37;3.70;;;;;;;20.82;41.77;93967.19;5093121;28;20186;-52
2023/04/03 08:38:43;;;;;;;4.27;3.87;;;;;;;20.86;41.95;93953.53;5092821;28;20253;-49
2023/04/03 08:41:17;;;;;;;4.20;3.27;;;;;;;20.82;41.64;93944.59;5092907;28;20242;-49
2023/04/03 08:43:58;;;;;;;6.23;3.80;;;;;;;20.90;41.80;93944.28;5093013;28;20209;-49
2023/04/03 08:46:37;;;;;;;4.63;3.40;;;;;;;20.93;41.68;93943.81;5092849;28;20225;-50
2023/04/03 08:49:05;;;;;;;3.90;3.50;;;;;;;20.95;41.70;93951.44;5092502;28;20197;-50
2023/04/03 08:51:33;;;;;;;6.33;4.13;;;;;;;20.96;41.71;93953.78;5092800;28;20225;-51
2023/04/03 08:54:05;;;;;;;8.97;4.23;;;;;;;20.97;41.66;93946.78;5092480;28;20194;-48
2023/04/03 08:56:35;;;;;;;8.70;4.50;;;;;;;21.00;41.71;93944.53;5092285;28;20221;-49
2023/04/03 08:59:06;;;;;;;5.33;4.33;;;;;;;20.88;41.59;93915.09;5092256;28;20620;-50
2023/04/03 09:01:37;;;;;;;5.43;4.47;;;;;;;20.98;41.60;93931.00;5092505;28;20194;-49
2023/04/03 09:04:11;;;;;;;10.93;5.20;;;;;;;20.82;41.39;93894.41;5091965;28;20328;-50
2023/04/03 09:06:39;;;;;;;7.03;4.73;;;;;;;20.91;41.34;93898.28;5092434;28;20303;-48
2023/04/03 09:09:14;;;;;;;7.60;4.70;;;;;;;21.10;41.41;93919.81;5092017;28;20283;-49
2023/04/03 09:11:51;;;;;;;6.17;4.50;;;;;;;21.14;41.33;93918.38;5092559;28;20193;-50
2023/04/03 09:14:26;;;;;;;7.50;5.03;;;;;;;21.15;41.38;93917.34;5092164;28;20243;-51
2023/04/03 09:16:57;;;;;;;13.13;5.97;;;;;;;21.16;40.99;93911.16;5092444;28;20193;-50
2023/04/03 09:19:36;;;;;;;6.83;5.23;;;;;;;21.17;41.16;93905.72;5092146;28;20259;-49
2023/04/03 09:22:13;;;;;;;7.77;5.80;;;;;;;21.17;41.10;93908.31;5092163;28;20240;-51
2023/04/03 09:24:41;;;;;;;9.70;5.75;;;;;;;21.15;40.85;93899.13;5091677;28;20242;-53
2023/04/03 09:27:12;;;;;;;10.20;5.80;;;;;;;21.19;41.01;93898.47;5091985;28;20217;-51
2023/04/03 09:29:42;;;;;;;8.23;5.37;;;;;;;21.19;41.05;93887.28;5092221;28;20251;-50
2023/04/03 09:32:22;;;;;;;11.50;5.33;;;;;;;21.23;41.12;93889.22;5091955;28;20190;-51
2023/04/03 09:34:51;;;;;;;8.23;5.87;;;;;;;21.25;40.88;93887.19;5092511;28;20216;-57
2023/04/03 09:37:38;;;;;;;9.43;5.70;;;;;;;21.29;40.88;93892.75;5093444;28;20277;-57
2023/04/03 09:40:06;;;;;;;13.13;6.00;;;;;;;21.33;40.93;93886.13;5093121;28;20185;-49
2023/04/03 09:42:41;;;;;;;9.50;5.95;;;;;;;21.37;40.67;93879.44;5091702;28;22155;-51
2023/04/03 09:45:24;;;;;;;7.60;5.53;;;;;;;21.35;40.48;93863.25;5091917;28;20651;-54
2023/04/03 09:48:06;;;;;;;7.37;5.73;;;;;;;21.48;40.51;93876.06;5092091;28;20178;-50
2023/04/03 09:50:34;;;;;;;15.23;6.28;;;;;;;21.50;40.46;93868.84;5091735;28;20307;-52
2023/04/03 09:53:07;;;;;;;6.22;4.57;;;;;;;21.55;40.39;93875.97;5091950;28;20217;-51
2023/04/03 09:55:43;;;;;;;9.25;5.32;;;;;;;21.58;40.14;93866.91;5091778;28;20181;-54
2023/04/03 09:58:26;;;;;;;6.68;4.20;;;;;;;21.58;40.20;93869.50;5093092;28;20542;-49
2023/04/03 10:00:56;;;;;;;6.35;4.78;;;;;;;21.54;40.05;93858.75;5091399;28;20250;-52
2023/04/03 10:03:27;;;;;;;9.43;4.40;;;;;;;21.53;39.91;93859.78;5091222;28;20581;-50
2023/04/03 10:05:55;;;;;;;5.53;4.40;;;;;;;21.48;40.26;93863.06;5091007;28;20193;-54
2023/04/03 10:08:24;;;;;;;7.70;4.65;;;;;;;21.38;40.17;93859.44;5091453;28;20657;-50
2023/04/03 10:11:09;;;;;;;5.70;4.00;;;;;;;21.26;40.07;93859.38;5091888;28;20545;-54
2023/04/03 10:13:51;;;;;;;6.50;3.90;;;;;;;21.14;40.21;93858.56;5091797;28;20349;-52
2023/04/03 10:16:22;;;;;;;6.07;3.97;;;;;;;21.00;40.45;93860.56;5091116;28;20209;-50
2023/04/03 10:18:58;;;;;;;5.13;4.20;;;;;;;20.82;40.49;93860.63;5091454;28;20190;-49
2023/04/03 10:21:36;;;;;;;4.97;3.77;;;;;;;20.67;40.73;93861.81;5091195;28;20656;-50
2023/04/03 10:24:11;;;;;;;7.07;3.83;;;;;;;20.52;40.76;93859.63;5090888;28;20232;-50
2023/04/03 10:26:44;;;;;;;6.50;3.90;;;;;;;20.38;40.80;93847.78;5091145;28;20193;-49
2023/04/03 10:29:24;;;;;;;6.70;3.73;;;;;;;20.17;41.01;93830.06;5090480;28;20205;-50
2023/04/03 10:32:00;;;;;;;4.23;3.50;;;;;;;20.20;41.05;93838.19;5090913;28;20182;-48
2023/04/03 10:34:31;;;;;;;4.37;3.90;;;;;;;20.14;41.00;93841.66;5090519;28;20587;-48
2023/04/03 10:37:06;;;;;;;4.03;3.57;;;;;;;20.10;41.02;93834.53;5089378;28;20675;-50
2023/04/03 10:39:40;;;;;;;5.43;3.63;;;;;;;19.67;41.15;93770.53;5090257;28;20342;-50
2023/04/03 10:42:14;;;;;;;7.77;4.13;;;;;;;20.02;41.07;93828.59;5090464;28;20684;-49
2023/04/03 10:44:55;;;;;;;4.20;3.20;;;;;;;20.04;41.14;93821.41;5090046;28;20302;-50
2023/04/03 10:47:28;;;;;;;4.57;3.43;;;;;;;20.00;41.21;93822.06;5090497;28;20254;-50
2023/04/03 10:50:02;;;;;;;5.73;3.73;;;;;;;19.99;41.18;93823.88;5090122;28;20280;-51
2023/04/03 10:52:38;;;;;;;5.20;3.23;;;;;;;19.93;41.31;93821.34;5090342;28;20200;-53
2023/04/03 10:55:17;;;;;;;4.70;3.20;;;;;;;19.87;41.22;93824.81;5090404;28;20189;-51
2023/04/03 10:57:47;;;;;;;6.83;3.53;;;;;;;19.73;41.40;93821.53;5089857;28;20765;-50
2023/04/03 11:00:21;;;;;;;8.47;3.50;;;;;;;19.67;41.48;93825.00;5090098;28;20639;-50
2023/04/03 11:02:53;;;;;;;4.57;3.23;;;;;;;19.59;41.46;93823.44;5089868;28;20197;-50
2023/04/03 11:05:30;;;;;;;3.70;3.30;;;;;;;19.51;41.61;93827.09;5090387;28;20194;-49
2023/04/03 11:08:03;;;;;;;4.63;2.87;;;;;;;19.43;41.78;93829.16;5089961;28;20276;-49
2023/04/03 11:10:40;;;;;;;5.23;3.03;;;;;;;19.34;41.76;93830.44;5090039;28;20190;-49
2023/04/03 11:13:14;;;;;;;4.27;2.77;;;;;;;19.23;41.92;93837.13;5089743;28;20193;-51
2023/04/03 11:15:44;;;;;;;4.43;2.40;;;;;;;19.13;42.06;93841.97;5090064;28;20641;-49
2023/04/03 11:18:15;;;;;;;3.10;2.80;;;;;;;19.01;42.32;93836.69;5089932;28;20182;-55
2023/04/03 11:20:48;;;;;;;3.13;2.80;;;;;;;18.68;42.50;93803.19;5089730;28;20243;-50
2023/04/03 11:23:24;;;;;;;3.00;2.70;;;;;;;18.75;42.77;93841.03;5090013;28;20293;-51
2023/04/03 11:25:54;;;;;;;5.13;2.50;;;;;;;18.56;42.88;93834.94;5090028;28;20185;-49
2023/04/03 11:28:21;;;;;;;2.63;2.33;;;;;;;18.52;43.14;93838.97;5089780;28;20196;-53
2023/04/03 11:30:55;;;;;;;3.20;2.80;;;;;;;18.51;43.55;93842.53;5089687;28;20204;-52
2023/04/03 11:33:31;;;;;;;3.30;2.70;;;;;;;18.43;43.71;93844.56;5089665;28;20287;-53
2023/04/03 11:36:03;;;;;;;4.33;2.63;;;;;;;18.37;44.23;93837.63;5089264;28;20181;-51
2023/04/03 11:38:36;;;;;;;3.33;2.93;;;;;;;18.33;44.45;93829.47;5089704;28;20534;-50
2023/04/03 11:41:03;;;;;;;3.90;2.73;;;;;;;18.33;44.48;93833.88;5089244;28;20181;-53